sensor_id;sensor_type;location;lat;lon;timestamp;P1;P2;P0
82817;PMS5003;72572;46.824;-71.222;2024-01-25T00:00:20;46.85;37.9;25.2
82817;PMS5003;72572;46.824;-71.222;2024-01-25T00:02:46;41.76;37.05;26.52
82817;PMS5003;72572;46.824;-71.222;2024-01-25T00:05:12;41.6;36.65;23.45
82817;PMS5003;72572;46.824;-71.222;2024-01-25T00:07:37;45.8;39.55;24.2
82817;PMS5003;72572;46.824;-71.222;2024-01-25T00:10:01;43.1;36.67;22.38
82817;PMS5003;72572;46.824;-71.222;2024-01-25T00:12:27;41;34.05;22.23
82817;PMS5003;72572;46.824;-71.222;2024-01-25T00:14:53;41.1;37;22.67
82817;PMS5003;72572;46.824;-71.222;2024-01-25T00:17:18;41.24;36.76;25.05
82817;PMS5003;72572;46.824;-71.222;2024-01-25T00:19:44;42.52;39.24;24.57
82817;PMS5003;72572;46.824;-71.222;2024-01-25T00:22:07;40.86;37.43;25.76
82817;PMS5003;72572;46.824;-71.222;2024-01-25T00:24:33;46;38.14;25.76
82817;PMS5003;72572;46.824;-71.222;2024-01-25T00:26:59;39.33;37.33;24.62
82817;PMS5003;72572;46.824;-71.222;2024-01-25T00:29:25;64.95;51.52;31.62
82817;PMS5003;72572;46.824;-71.222;2024-01-25T00:31:51;110.84;76.42;44.05
82817;PMS5003;72572;46.824;-71.222;2024-01-25T00:34:17;59.65;44.9;28.95
82817;PMS5003;72572;46.824;-71.222;2024-01-25T00:36:41;143.47;97.89;48.26
82817;PMS5003;72572;46.824;-71.222;2024-01-25T00:39:08;98.26;72.05;43.11
82817;PMS5003;72572;46.824;-71.222;2024-01-25T00:41:31;95;69.94;42.56
82817;PMS5003;72572;46.824;-71.222;2024-01-25T00:43:57;112.2;80.35;45.45
82817;PMS5003;72572;46.824;-71.222;2024-01-25T00:46:24;81.76;61.33;40.38
82817;PMS5003;72572;46.824;-71.222;2024-01-25T00:48:48;92.05;66.95;41.75
82817;PMS5003;72572;46.824;-71.222;2024-01-25T00:51:15;144.9;90.05;47.15
82817;PMS5003;72572;46.824;-71.222;2024-01-25T00:53:40;118.75;80.6;44.4
82817;PMS5003;72572;46.824;-71.222;2024-01-25T00:56:04;59.76;48.43;32.19
82817;PMS5003;72572;46.824;-71.222;2024-01-25T00:58:29;124.25;90.2;49.85
82817;PMS5003;72572;46.824;-71.222;2024-01-25T01:00:54;122.37;93.74;50.53
82817;PMS5003;72572;46.824;-71.222;2024-01-25T01:03:21;136.62;101.38;53.9
82817;PMS5003;72572;46.824;-71.222;2024-01-25T01:05:46;64.89;50.58;31.95
82817;PMS5003;72572;46.824;-71.222;2024-01-25T01:08:11;79.6;61.4;37.9
82817;PMS5003;72572;46.824;-71.222;2024-01-25T01:10:35;50.95;45.25;32.1
82817;PMS5003;72572;46.824;-71.222;2024-01-25T01:13:03;56.14;48.48;32.24
82817;PMS5003;72572;46.824;-71.222;2024-01-25T01:15:26;69.79;54.53;34.68
82817;PMS5003;72572;46.824;-71.222;2024-01-25T01:17:53;58.62;47.9;31.95
82817;PMS5003;72572;46.824;-71.222;2024-01-25T01:20:17;65.3;52.65;32.7
82817;PMS5003;72572;46.824;-71.222;2024-01-25T01:22:42;56.33;47.29;32.67
82817;PMS5003;72572;46.824;-71.222;2024-01-25T01:25:08;60.3;50.85;33.55
82817;PMS5003;72572;46.824;-71.222;2024-01-25T01:27:35;63.4;51.45;33.4
82817;PMS5003;72572;46.824;-71.222;2024-01-25T01:30:00;61.76;48.86;33.05
82817;PMS5003;72572;46.824;-71.222;2024-01-25T01:32:24;66.25;54.25;34.65
82817;PMS5003;72572;46.824;-71.222;2024-01-25T01:34:49;68.26;52.42;33.47
82817;PMS5003;72572;46.824;-71.222;2024-01-25T01:37:15;67.29;56.24;37.95
82817;PMS5003;72572;46.824;-71.222;2024-01-25T01:39:40;67.9;52.05;34.4
82817;PMS5003;72572;46.824;-71.222;2024-01-25T01:42:06;68.65;51.8;34.25
82817;PMS5003;72572;46.824;-71.222;2024-01-25T01:44:31;67.2;50.95;32.65
82817;PMS5003;72572;46.824;-71.222;2024-01-25T01:46:55;66.55;51.45;33.1
82817;PMS5003;72572;46.824;-71.222;2024-01-25T01:49:21;68.32;51.89;32.84
82817;PMS5003;72572;46.824;-71.222;2024-01-25T01:51:47;60.48;50.86;34.05
82817;PMS5003;72572;46.824;-71.222;2024-01-25T01:54:13;67.45;53.8;34.25
82817;PMS5003;72572;46.824;-71.222;2024-01-25T01:56:36;67.61;53.83;35
82817;PMS5003;72572;46.824;-71.222;2024-01-25T01:59:02;65.22;51.83;32.33
82817;PMS5003;72572;46.824;-71.222;2024-01-25T02:01:27;66.65;52.8;34.4
82817;PMS5003;72572;46.824;-71.222;2024-01-25T02:03:53;62.15;50.95;32.8
82817;PMS5003;72572;46.824;-71.222;2024-01-25T02:06:17;69.65;51.3;34.4
82817;PMS5003;72572;46.824;-71.222;2024-01-25T02:08:44;62.95;52.05;34
82817;PMS5003;72572;46.824;-71.222;2024-01-25T02:11:11;65.95;52.48;35.29
82817;PMS5003;72572;46.824;-71.222;2024-01-25T02:13:34;60.15;50.2;31.85
82817;PMS5003;72572;46.824;-71.222;2024-01-25T02:16:00;66.25;50.4;33.5
82817;PMS5003;72572;46.824;-71.222;2024-01-25T02:18:27;69.42;54.21;34.79
82817;PMS5003;72572;46.824;-71.222;2024-01-25T02:20:50;60.05;48;30.9
82817;PMS5003;72572;46.824;-71.222;2024-01-25T02:23:16;69.16;52.53;34.11
82817;PMS5003;72572;46.824;-71.222;2024-01-25T02:25:41;70.7;52.9;32.55
82817;PMS5003;72572;46.824;-71.222;2024-01-25T02:28:08;60.33;48.95;30.81
82817;PMS5003;72572;46.824;-71.222;2024-01-25T02:30:34;69.47;52.21;33.26
82817;PMS5003;72572;46.824;-71.222;2024-01-25T02:32:59;66.42;50.42;32.89
82817;PMS5003;72572;46.824;-71.222;2024-01-25T02:35:23;60.67;50.38;32.95
82817;PMS5003;72572;46.824;-71.222;2024-01-25T02:37:49;64.45;50.95;32
82817;PMS5003;72572;46.824;-71.222;2024-01-25T02:40:13;67.3;50.7;33.2
82817;PMS5003;72572;46.824;-71.222;2024-01-25T02:42:38;59.48;49.57;33.24
82817;PMS5003;72572;46.824;-71.222;2024-01-25T02:45:05;65;49.45;32.5
82817;PMS5003;72572;46.824;-71.222;2024-01-25T02:47:29;55.4;48;31.4
82817;PMS5003;72572;46.824;-71.222;2024-01-25T02:49:55;57.22;49.11;32.61
82817;PMS5003;72572;46.824;-71.222;2024-01-25T02:52:21;67.68;54.26;34.89
82817;PMS5003;72572;46.824;-71.222;2024-01-25T02:54:46;68.5;53.75;35.4
82817;PMS5003;72572;46.824;-71.222;2024-01-25T02:57:12;73.3;56.15;35.7
82817;PMS5003;72572;46.824;-71.222;2024-01-25T02:59:35;64.35;51;32.5
82817;PMS5003;72572;46.824;-71.222;2024-01-25T03:02:04;68.86;55.14;34.52
82817;PMS5003;72572;46.824;-71.222;2024-01-25T03:04:26;68.85;55.75;35.3
82817;PMS5003;72572;46.824;-71.222;2024-01-25T03:06:53;67.35;53.35;34.45
82817;PMS5003;72572;46.824;-71.222;2024-01-25T03:09:18;65.55;54.5;34.75
82817;PMS5003;72572;46.824;-71.222;2024-01-25T03:11:43;68.5;54.2;34.6
82817;PMS5003;72572;46.824;-71.222;2024-01-25T03:14:09;65.45;54.85;35.9
82817;PMS5003;72572;46.824;-71.222;2024-01-25T03:16:35;73.55;54.75;35.55
82817;PMS5003;72572;46.824;-71.222;2024-01-25T03:19:01;67.24;54.05;34.57
82817;PMS5003;72572;46.824;-71.222;2024-01-25T03:21:24;69.21;55.21;35.79
82817;PMS5003;72572;46.824;-71.222;2024-01-25T03:23:50;65.76;52.62;33.19
82817;PMS5003;72572;46.824;-71.222;2024-01-25T03:26:17;75.67;57.83;37.06
82817;PMS5003;72572;46.824;-71.222;2024-01-25T03:28:40;65.15;54.9;35.75
82817;PMS5003;72572;46.824;-71.222;2024-01-25T03:31:06;67.33;52.1;34
82817;PMS5003;72572;46.824;-71.222;2024-01-25T03:33:32;57.1;49.52;30.48
82817;PMS5003;72572;46.824;-71.222;2024-01-25T03:36:01;63.14;51.91;34.45
82817;PMS5003;72572;46.824;-71.222;2024-01-25T03:38:22;75.21;55.84;35.47
82817;PMS5003;72572;46.824;-71.222;2024-01-25T03:40:48;67.75;55.15;35.55
82817;PMS5003;72572;46.824;-71.222;2024-01-25T03:43:14;77.35;58.75;36.6
82817;PMS5003;72572;46.824;-71.222;2024-01-25T03:45:38;68.75;53.8;34.8
82817;PMS5003;72572;46.824;-71.222;2024-01-25T03:48:04;70.68;57.53;36.26
82817;PMS5003;72572;46.824;-71.222;2024-01-25T03:50:30;70.35;55.45;36.25
82817;PMS5003;72572;46.824;-71.222;2024-01-25T03:52:56;63.86;52.1;33.76
82817;PMS5003;72572;46.824;-71.222;2024-01-25T03:55:19;73.9;57.8;36.95
82817;PMS5003;72572;46.824;-71.222;2024-01-25T03:57:45;72.7;55.8;36.55
82817;PMS5003;72572;46.824;-71.222;2024-01-25T04:00:11;72.26;57.21;35.68
82817;PMS5003;72572;46.824;-71.222;2024-01-25T04:02:38;70.05;56.25;35.25
82817;PMS5003;72572;46.824;-71.222;2024-01-25T04:05:02;76.2;60.4;39.15
82817;PMS5003;72572;46.824;-71.222;2024-01-25T04:07:27;80.8;60;38.25
82817;PMS5003;72572;46.824;-71.222;2024-01-25T04:09:53;77.9;61.15;38.6
82817;PMS5003;72572;46.824;-71.222;2024-01-25T04:12:18;76.9;58.9;39.05
82817;PMS5003;72572;46.824;-71.222;2024-01-25T04:14:45;81.75;63.55;40.25
82817;PMS5003;72572;46.824;-71.222;2024-01-25T04:17:07;72.85;59.2;39
82817;PMS5003;72572;46.824;-71.222;2024-01-25T04:19:33;73.8;57.4;38.4
82817;PMS5003;72572;46.824;-71.222;2024-01-25T04:21:59;71.8;57;38.35
82817;PMS5003;72572;46.824;-71.222;2024-01-25T04:24:25;68.9;55.8;35.8
82817;PMS5003;72572;46.824;-71.222;2024-01-25T04:26:51;72;59.62;39
82817;PMS5003;72572;46.824;-71.222;2024-01-25T04:29:17;68.6;56.8;37.6
82817;PMS5003;72572;46.824;-71.222;2024-01-25T04:31:42;73.89;58.74;37.26
82817;PMS5003;72572;46.824;-71.222;2024-01-25T04:34:05;74.75;58.95;38.35
82817;PMS5003;72572;46.824;-71.222;2024-01-25T04:36:31;79.61;60.78;38.67
82817;PMS5003;72572;46.824;-71.222;2024-01-25T04:38:56;77.2;59.1;37.5
82817;PMS5003;72572;46.824;-71.222;2024-01-25T04:41:22;77.45;61.5;39.65
82817;PMS5003;72572;46.824;-71.222;2024-01-25T04:43:48;78.42;60.74;39.63
82817;PMS5003;72572;46.824;-71.222;2024-01-25T04:46:13;73.5;57.95;37.95
82817;PMS5003;72572;46.824;-71.222;2024-01-25T04:48:39;77.84;61.68;40.16
82817;PMS5003;72572;46.824;-71.222;2024-01-25T04:51:05;82.26;61.63;39.58
82817;PMS5003;72572;46.824;-71.222;2024-01-25T04:53:29;70.9;56.05;35
82817;PMS5003;72572;46.824;-71.222;2024-01-25T04:55:55;75.3;59.8;39
82817;PMS5003;72572;46.824;-71.222;2024-01-25T04:58:18;83.42;64.37;40.68
82817;PMS5003;72572;46.824;-71.222;2024-01-25T05:00:47;75.95;59.43;38.52
82817;PMS5003;72572;46.824;-71.222;2024-01-25T05:03:10;81.58;62.37;39.58
82817;PMS5003;72572;46.824;-71.222;2024-01-25T05:05:36;76.95;60.45;39.9
82817;PMS5003;72572;46.824;-71.222;2024-01-25T05:08:02;75.24;60.52;38.29
82817;PMS5003;72572;46.824;-71.222;2024-01-25T05:10:28;81.25;62.65;40.9
82817;PMS5003;72572;46.824;-71.222;2024-01-25T05:12:52;86.85;63.05;40.4
82817;PMS5003;72572;46.824;-71.222;2024-01-25T05:15:18;75.1;61.3;38.7
82817;PMS5003;72572;46.824;-71.222;2024-01-25T05:17:44;81.43;63.1;40.05
82817;PMS5003;72572;46.824;-71.222;2024-01-25T05:20:10;80.11;61;38.95
82817;PMS5003;72572;46.824;-71.222;2024-01-25T05:22:35;81.58;60.84;39.63
82817;PMS5003;72572;46.824;-71.222;2024-01-25T05:25:00;80.05;63.5;41.85
82817;PMS5003;72572;46.824;-71.222;2024-01-25T05:27:26;78.8;62.85;39.9
82817;PMS5003;72572;46.824;-71.222;2024-01-25T05:29:48;81.67;61.28;39.44
82817;PMS5003;72572;46.824;-71.222;2024-01-25T05:32:16;79.95;62.37;39.05
82817;PMS5003;72572;46.824;-71.222;2024-01-25T05:34:42;80.4;62.8;40.9
82817;PMS5003;72572;46.824;-71.222;2024-01-25T05:37:06;78.9;62.25;39.45
82817;PMS5003;72572;46.824;-71.222;2024-01-25T05:39:32;78.4;62.5;38.8
82817;PMS5003;72572;46.824;-71.222;2024-01-25T05:41:58;80.7;61.75;39.95
82817;PMS5003;72572;46.824;-71.222;2024-01-25T05:44:21;81.2;62.65;41.4
82817;PMS5003;72572;46.824;-71.222;2024-01-25T05:46:46;82.45;60.1;39.1
82817;PMS5003;72572;46.824;-71.222;2024-01-25T05:49:12;76.55;62.45;40.25
82817;PMS5003;72572;46.824;-71.222;2024-01-25T05:51:39;77.5;61.45;39.2
82817;PMS5003;72572;46.824;-71.222;2024-01-25T05:54:05;82.63;61.21;39.42
82817;PMS5003;72572;46.824;-71.222;2024-01-25T05:56:30;75.28;60.06;39.11
82817;PMS5003;72572;46.824;-71.222;2024-01-25T05:58:53;81.79;62.26;39.21
82817;PMS5003;72572;46.824;-71.222;2024-01-25T06:01:19;71.85;58.6;36
82817;PMS5003;72572;46.824;-71.222;2024-01-25T06:03:45;83.85;62.95;39.1
82817;PMS5003;72572;46.824;-71.222;2024-01-25T06:06:11;77.2;61.55;38.9
82817;PMS5003;72572;46.824;-71.222;2024-01-25T06:08:35;83;62.86;40.24
82817;PMS5003;72572;46.824;-71.222;2024-01-25T06:11:02;79.39;61.61;39.39
82817;PMS5003;72572;46.824;-71.222;2024-01-25T06:13:26;81.7;63.45;40.25
82817;PMS5003;72572;46.824;-71.222;2024-01-25T06:15:54;84.89;64.17;40.72
82817;PMS5003;72572;46.824;-71.222;2024-01-25T06:18:16;77.19;61.29;38.76
82817;PMS5003;72572;46.824;-71.222;2024-01-25T06:20:42;80.2;63;40.4
82817;PMS5003;72572;46.824;-71.222;2024-01-25T06:23:09;85.26;62.11;39.37
82817;PMS5003;72572;46.824;-71.222;2024-01-25T06:25:35;83.3;61.8;39.8
82817;PMS5003;72572;46.824;-71.222;2024-01-25T06:27:59;78.44;61.89;39.33
82817;PMS5003;72572;46.824;-71.222;2024-01-25T06:30:24;84.55;62.95;39.9
82817;PMS5003;72572;46.824;-71.222;2024-01-25T06:32:51;80.3;63.8;39.9
82817;PMS5003;72572;46.824;-71.222;2024-01-25T06:35:17;78.55;60.85;38.75
82817;PMS5003;72572;46.824;-71.222;2024-01-25T06:37:40;83.42;62.53;39.37
82817;PMS5003;72572;46.824;-71.222;2024-01-25T06:40:18;77.7;60.05;38.55
82817;PMS5003;72572;46.824;-71.222;2024-01-25T06:42:44;83.94;63.28;39.17
82817;PMS5003;72572;46.824;-71.222;2024-01-25T06:45:10;81;61.79;39.32
82817;PMS5003;72572;46.824;-71.222;2024-01-25T06:47:33;75.85;59.2;37.2
82817;PMS5003;72572;46.824;-71.222;2024-01-25T06:50:01;75.32;59;38
82817;PMS5003;72572;46.824;-71.222;2024-01-25T06:52:24;73.85;60.7;38.45
82817;PMS5003;72572;46.824;-71.222;2024-01-25T06:54:50;79.8;61.45;39.2
82817;PMS5003;72572;46.824;-71.222;2024-01-25T06:57:16;74.68;58.82;37.73
82817;PMS5003;72572;46.824;-71.222;2024-01-25T06:59:42;79.79;59.89;38.11
82817;PMS5003;72572;46.824;-71.222;2024-01-25T07:02:07;76.28;59;37.33
82817;PMS5003;72572;46.824;-71.222;2024-01-25T07:04:31;76.56;58.17;36.06
82817;PMS5003;72572;46.824;-71.222;2024-01-25T07:06:57;74.37;58.16;34.68
82817;PMS5003;72572;46.824;-71.222;2024-01-25T07:09:24;74.78;57.83;36.17
82817;PMS5003;72572;46.824;-71.222;2024-01-25T07:11:47;77.67;59.5;37.22
82817;PMS5003;72572;46.824;-71.222;2024-01-25T07:14:14;70.67;58.1;35.9
82817;PMS5003;72572;46.824;-71.222;2024-01-25T07:16:40;67.7;53.7;34.6
82817;PMS5003;72572;46.824;-71.222;2024-01-25T07:19:03;68.62;54.38;33.86
82817;PMS5003;72572;46.824;-71.222;2024-01-25T07:21:30;71.89;56.44;35.56
82817;PMS5003;72572;46.824;-71.222;2024-01-25T07:23:54;68.43;54.95;36.05
82817;PMS5003;72572;46.824;-71.222;2024-01-25T07:26:20;77;57;34.15
82817;PMS5003;72572;46.824;-71.222;2024-01-25T07:28:46;83.32;59.11;36.32
82817;PMS5003;72572;46.824;-71.222;2024-01-25T07:31:13;78.38;59.38;38.57
82817;PMS5003;72572;46.824;-71.222;2024-01-25T07:33:38;72.45;58.35;36.3
82817;PMS5003;72572;46.824;-71.222;2024-01-25T07:36:01;75.17;58.72;37.61
82817;PMS5003;72572;46.824;-71.222;2024-01-25T07:38:28;77.16;60.63;39.11
82817;PMS5003;72572;46.824;-71.222;2024-01-25T07:40:52;77.2;59.1;36.8
82817;PMS5003;72572;46.824;-71.222;2024-01-25T07:43:18;74.89;59.61;36.56
82817;PMS5003;72572;46.824;-71.222;2024-01-25T07:45:45;76.67;59.19;35.57
82817;PMS5003;72572;46.824;-71.222;2024-01-25T07:48:11;74.81;58.52;35.48
82817;PMS5003;72572;46.824;-71.222;2024-01-25T07:50:37;64.65;52;31
82817;PMS5003;72572;46.824;-71.222;2024-01-25T07:53:00;74.47;57.32;34.42
82817;PMS5003;72572;46.824;-71.222;2024-01-25T07:55:27;66.32;51.84;33.05
82817;PMS5003;72572;46.824;-71.222;2024-01-25T07:57:52;62.35;49.85;30.85
82817;PMS5003;72572;46.824;-71.222;2024-01-25T08:00:16;66.74;50.89;33.05
82817;PMS5003;72572;46.824;-71.222;2024-01-25T08:02:42;61.62;48.33;30.14
82817;PMS5003;72572;46.824;-71.222;2024-01-25T08:05:07;67.35;51.5;30.65
82817;PMS5003;72572;46.824;-71.222;2024-01-25T08:07:32;63.7;48.35;31.3
82817;PMS5003;72572;46.824;-71.222;2024-01-25T08:09:59;57.35;46.7;29.85
82817;PMS5003;72572;46.824;-71.222;2024-01-25T08:12:23;52.76;45.05;27.38
82817;PMS5003;72572;46.824;-71.222;2024-01-25T08:14:49;54.85;45.1;29.05
82817;PMS5003;72572;46.824;-71.222;2024-01-25T08:17:16;66.25;50.15;32.2
82817;PMS5003;72572;46.824;-71.222;2024-01-25T08:19:40;61.15;48.55;29.4
82817;PMS5003;72572;46.824;-71.222;2024-01-25T08:22:05;59.24;45.76;28.81
82817;PMS5003;72572;46.824;-71.222;2024-01-25T08:24:31;63.63;49.42;30.63
82817;PMS5003;72572;46.824;-71.222;2024-01-25T08:26:57;55.72;47.06;30.22
82817;PMS5003;72572;46.824;-71.222;2024-01-25T08:29:22;54.16;46.26;27.58
82817;PMS5003;72572;46.824;-71.222;2024-01-25T08:31:48;57.55;44;28.8
82817;PMS5003;72572;46.824;-71.222;2024-01-25T08:34:13;55.3;46.65;30.3
82817;PMS5003;72572;46.824;-71.222;2024-01-25T08:36:37;56.63;44.79;27.37
82817;PMS5003;72572;46.824;-71.222;2024-01-25T08:39:03;56.33;45.14;27.9
82817;PMS5003;72572;46.824;-71.222;2024-01-25T08:41:30;50.79;42.74;24.53
82817;PMS5003;72572;46.824;-71.222;2024-01-25T08:43:55;53.44;44.61;26.5
82817;PMS5003;72572;46.824;-71.222;2024-01-25T08:46:19;38.57;35.9;22.71
82817;PMS5003;72572;46.824;-71.222;2024-01-25T08:48:46;49.1;42.15;27.7
82817;PMS5003;72572;46.824;-71.222;2024-01-25T08:51:10;49.55;40.05;25.05
82817;PMS5003;72572;46.824;-71.222;2024-01-25T08:53:37;43.35;40.2;22.95
82817;PMS5003;72572;46.824;-71.222;2024-01-25T08:56:01;54.65;44.1;26.45
82817;PMS5003;72572;46.824;-71.222;2024-01-25T08:58:26;43.8;37.95;23.1
82817;PMS5003;72572;46.824;-71.222;2024-01-25T09:32:48;57.95;42.15;24.3
82817;PMS5003;72572;46.824;-71.222;2024-01-25T09:33:05;37;34.76;19.76
82817;PMS5003;72572;46.824;-71.222;2024-01-25T09:33:21;47.67;37.19;19.62
82817;PMS5003;72572;46.824;-71.222;2024-01-25T09:33:34;45.84;38.32;24.05
82817;PMS5003;72572;46.824;-71.222;2024-01-25T09:33:43;41.3;34.7;20.55
82817;PMS5003;72572;46.824;-71.222;2024-01-25T09:33:55;43.05;35.52;19.14
82817;PMS5003;72572;46.824;-71.222;2024-01-25T09:34:04;36.81;35.95;23
82817;PMS5003;72572;46.824;-71.222;2024-01-25T09:34:23;47.68;36.73;17.64
82817;PMS5003;72572;46.824;-71.222;2024-01-25T09:36:42;36.05;30.26;18.05
82817;PMS5003;72572;46.824;-71.222;2024-01-25T09:39:05;43.1;32.8;21.35
82817;PMS5003;72572;46.824;-71.222;2024-01-25T09:41:30;37.83;33.94;19.61
82817;PMS5003;72572;46.824;-71.222;2024-01-25T09:43:56;27.81;24.24;14.95
82817;PMS5003;72572;46.824;-71.222;2024-01-25T09:46:22;40.2;30.65;19
82817;PMS5003;72572;46.824;-71.222;2024-01-25T09:48:47;33.19;28.29;15.1
82817;PMS5003;72572;46.824;-71.222;2024-01-25T09:51:14;25.3;24.05;14.55
82817;PMS5003;72572;46.824;-71.222;2024-01-25T09:53:40;27.95;26.53;17.37
82817;PMS5003;72572;46.824;-71.222;2024-01-25T09:56:06;30.78;27.56;16.44
82817;PMS5003;72572;46.824;-71.222;2024-01-25T09:58:29;32.6;29.65;18.15
82817;PMS5003;72572;46.824;-71.222;2024-01-25T10:00:56;30.1;27.95;17.48
82817;PMS5003;72572;46.824;-71.222;2024-01-25T10:03:21;31.55;29.4;18.15
82817;PMS5003;72572;46.824;-71.222;2024-01-25T10:05:45;29.63;27.79;18.68
82817;PMS5003;72572;46.824;-71.222;2024-01-25T10:08:12;37.35;35.3;19.25
82817;PMS5003;72572;46.824;-71.222;2024-01-25T10:10:36;33.35;32.05;18.8
82817;PMS5003;72572;46.824;-71.222;2024-01-25T10:13:01;38.6;31.5;18.65
82817;PMS5003;72572;46.824;-71.222;2024-01-25T10:15:27;37.16;35.05;21.53
82817;PMS5003;72572;46.824;-71.222;2024-01-25T10:17:53;49.7;39.6;25.3
82817;PMS5003;72572;46.824;-71.222;2024-01-25T10:20:17;45;40.95;25.7
82817;PMS5003;72572;46.824;-71.222;2024-01-25T10:22:42;50.11;39.79;23.11
82817;PMS5003;72572;46.824;-71.222;2024-01-25T10:25:11;49.25;40.45;25.1
82817;PMS5003;72572;46.824;-71.222;2024-01-25T10:27:34;47.6;42.7;25.05
82817;PMS5003;72572;46.824;-71.222;2024-01-25T10:30:00;44.19;40;23.19
82817;PMS5003;72572;46.824;-71.222;2024-01-25T10:32:24;48.5;42.9;26.45
82817;PMS5003;72572;46.824;-71.222;2024-01-25T10:34:51;53.18;42.09;26.91
82817;PMS5003;72572;46.824;-71.222;2024-01-25T10:37:16;38;35.8;23.1
82817;PMS5003;72572;46.824;-71.222;2024-01-25T10:39:42;55.9;44.05;26.4
82817;PMS5003;72572;46.824;-71.222;2024-01-25T10:42:06;60.7;46.6;28.25
82817;PMS5003;72572;46.824;-71.222;2024-01-25T10:44:30;55.63;43.74;25.74
82817;PMS5003;72572;46.824;-71.222;2024-01-25T10:46:58;55.65;45.1;26.5
82817;PMS5003;72572;46.824;-71.222;2024-01-25T10:49:21;54.15;43.3;26.6
82817;PMS5003;72572;46.824;-71.222;2024-01-25T10:51:48;61.36;46.55;29.55
82817;PMS5003;72572;46.824;-71.222;2024-01-25T10:54:13;59.16;46.11;28.47
82817;PMS5003;72572;46.824;-71.222;2024-01-25T10:56:39;50.6;43.4;26.1
82817;PMS5003;72572;46.824;-71.222;2024-01-25T10:59:03;55.3;45.05;26.7
82817;PMS5003;72572;46.824;-71.222;2024-01-25T11:01:30;61.42;46.84;28.05
82817;PMS5003;72572;46.824;-71.222;2024-01-25T11:03:54;38.8;34.4;23.05
82817;PMS5003;72572;46.824;-71.222;2024-01-25T11:06:21;47.15;41.6;25.15
82817;PMS5003;72572;46.824;-71.222;2024-01-25T11:08:47;59.18;44.27;26.09
82817;PMS5003;72572;46.824;-71.222;2024-01-25T11:11:11;62.43;46.43;27.95
82817;PMS5003;72572;46.824;-71.222;2024-01-25T11:13:37;52.75;43.15;25.75
82817;PMS5003;72572;46.824;-71.222;2024-01-25T11:16:18;58.5;46.05;28.45
82817;PMS5003;72572;46.824;-71.222;2024-01-25T11:18:28;41.8;38.2;23.35
82817;PMS5003;72572;46.824;-71.222;2024-01-25T11:20:52;61.56;47.83;28.56
82817;PMS5003;72572;46.824;-71.222;2024-01-25T11:23:18;60.74;46.42;28.05
82817;PMS5003;72572;46.824;-71.222;2024-01-25T11:25:44;61.48;47.81;28.71
82817;PMS5003;72572;46.824;-71.222;2024-01-25T11:28:08;59.65;46.85;29.5
82817;PMS5003;72572;46.824;-71.222;2024-01-25T11:30:33;59.45;48.95;28.15
82817;PMS5003;72572;46.824;-71.222;2024-01-25T11:33:00;57.15;49.1;29.1
82817;PMS5003;72572;46.824;-71.222;2024-01-25T11:35:24;60.1;49.5;29.4
82817;PMS5003;72572;46.824;-71.222;2024-01-25T11:37:50;61.15;50.85;31.65
82817;PMS5003;72572;46.824;-71.222;2024-01-25T11:40:15;62.39;47.78;29.22
82817;PMS5003;72572;46.824;-71.222;2024-01-25T11:42:42;68.45;51.5;30.25
82817;PMS5003;72572;46.824;-71.222;2024-01-25T11:45:07;69;51.42;30.63
82817;PMS5003;72572;46.824;-71.222;2024-01-25T11:47:32;64.26;50.16;31.37
82817;PMS5003;72572;46.824;-71.222;2024-01-25T11:49:58;62.75;50.95;29.75
82817;PMS5003;72572;46.824;-71.222;2024-01-25T11:52:21;63.75;49.75;30.45
82817;PMS5003;72572;46.824;-71.222;2024-01-25T11:54:47;58.8;48.2;30.35
82817;PMS5003;72572;46.824;-71.222;2024-01-25T11:57:12;67.14;51.81;29.95
82817;PMS5003;72572;46.824;-71.222;2024-01-25T11:59:40;60.45;48.1;29.1
82817;PMS5003;72572;46.824;-71.222;2024-01-25T12:02:04;61.85;46.55;28.7
82817;PMS5003;72572;46.824;-71.222;2024-01-25T12:04:31;66.1;48.45;27.7
82817;PMS5003;72572;46.824;-71.222;2024-01-25T12:06:55;54.2;46.4;26.35
82817;PMS5003;72572;46.824;-71.222;2024-01-25T12:09:20;60.8;46.9;28.15
82817;PMS5003;72572;46.824;-71.222;2024-01-25T12:11:48;61.25;46.55;27.4
82817;PMS5003;72572;46.824;-71.222;2024-01-25T12:14:12;65.9;48.86;29.24
82817;PMS5003;72572;46.824;-71.222;2024-01-25T12:16:38;56.05;45.42;27.47
82817;PMS5003;72572;46.824;-71.222;2024-01-25T12:19:02;51.95;41.75;25.3
82817;PMS5003;72572;46.824;-71.222;2024-01-25T12:21:26;61.45;45.25;26.7
82817;PMS5003;72572;46.824;-71.222;2024-01-25T12:23:54;51.45;45.15;25.8
82817;PMS5003;72572;46.824;-71.222;2024-01-25T12:26:19;65.86;44.67;28.14
82817;PMS5003;72572;46.824;-71.222;2024-01-25T12:28:44;52.2;44.1;26.9
82817;PMS5003;72572;46.824;-71.222;2024-01-25T12:31:07;49.65;41.6;25.95
82817;PMS5003;72572;46.824;-71.222;2024-01-25T12:33:35;45.95;39.71;24.05
82817;PMS5003;72572;46.824;-71.222;2024-01-25T12:35:59;50.05;41.53;23
82817;PMS5003;72572;46.824;-71.222;2024-01-25T12:38:24;49.4;42.85;23.1
82817;PMS5003;72572;46.824;-71.222;2024-01-25T12:40:51;56.25;41.8;23.2
82817;PMS5003;72572;46.824;-71.222;2024-01-25T12:43:15;49.6;40.7;22.75
82817;PMS5003;72572;46.824;-71.222;2024-01-25T12:45:40;43.25;40.1;21.75
82817;PMS5003;72572;46.824;-71.222;2024-01-25T12:48:07;38.8;33.9;21.95
82817;PMS5003;72572;46.824;-71.222;2024-01-25T12:50:33;46.27;38.36;22.14
82817;PMS5003;72572;46.824;-71.222;2024-01-25T12:52:56;42.32;36.74;19.74
82817;PMS5003;72572;46.824;-71.222;2024-01-25T12:55:23;36.5;30.44;18
82817;PMS5003;72572;46.824;-71.222;2024-01-25T12:57:50;36.2;32;17.3
82817;PMS5003;72572;46.824;-71.222;2024-01-25T13:00:13;38.65;29.55;17
82817;PMS5003;72572;46.824;-71.222;2024-01-25T13:02:40;40;34.42;17.32
82817;PMS5003;72572;46.824;-71.222;2024-01-25T13:05:03;33.1;30.57;18.43
82817;PMS5003;72572;46.824;-71.222;2024-01-25T13:07:29;40.38;33.33;19.1
82817;PMS5003;72572;46.824;-71.222;2024-01-25T13:09:55;33.9;28.85;17.55
82817;PMS5003;72572;46.824;-71.222;2024-01-25T13:12:19;29.6;27.5;14.9
82817;PMS5003;72572;46.824;-71.222;2024-01-25T13:14:45;33.55;32.1;18.95
82817;PMS5003;72572;46.824;-71.222;2024-01-25T13:17:12;28.7;26.9;16.65
82817;PMS5003;72572;46.824;-71.222;2024-01-25T13:19:36;30.47;25.47;15.47
82817;PMS5003;72572;46.824;-71.222;2024-01-25T13:22:02;30.6;29;16.15
82817;PMS5003;72572;46.824;-71.222;2024-01-25T13:24:27;29.75;25.05;14.45
82817;PMS5003;72572;46.824;-71.222;2024-01-25T13:26:53;29.7;27.75;18.1
82817;PMS5003;72572;46.824;-71.222;2024-01-25T13:29:18;33.75;26.3;14.3
82817;PMS5003;72572;46.824;-71.222;2024-01-25T13:31:44;32.05;29.1;14.75
82817;PMS5003;72572;46.824;-71.222;2024-01-25T13:34:10;30.95;26.1;15.8
82817;PMS5003;72572;46.824;-71.222;2024-01-25T13:36:33;27.25;26.15;14.95
82817;PMS5003;72572;46.824;-71.222;2024-01-25T13:38:58;34.2;28.85;16.6
82817;PMS5003;72572;46.824;-71.222;2024-01-25T13:41:37;32.33;27.38;15